sensor_id;sensor_type;location;lat;lon;timestamp;temperature;humidity
12434;DHT22;6281;49.038;8.372;2023-03-03T00:02:05;3.40;99.90
12434;DHT22;6281;49.038;8.372;2023-03-03T00:04:32;3.40;99.90
12434;DHT22;6281;49.038;8.372;2023-03-03T00:06:59;3.20;99.90
12434;DHT22;6281;49.038;8.372;2023-03-03T00:09:26;3.20;99.90
12434;DHT22;6281;49.038;8.372;2023-03-03T00:11:55;3.40;99.90
12434;DHT22;6281;49.038;8.372;2023-03-03T00:14:26;3.30;99.90
12434;DHT22;6281;49.038;8.372;2023-03-03T00:16:56;3.20;99.90
12434;DHT22;6281;49.038;8.372;2023-03-03T00:19:23;2.90;99.90
12434;DHT22;6281;49.038;8.372;2023-03-03T00:21:50;2.90;99.90
12434;DHT22;6281;49.038;8.372;2023-03-03T00:24:20;3.20;99.90
12434;DHT22;6281;49.038;8.372;2023-03-03T00:26:48;2.90;99.90
12434;DHT22;6281;49.038;8.372;2023-03-03T00:29:33;2.90;99.90
12434;DHT22;6281;49.038;8.372;2023-03-03T00:32:22;3.10;99.90
12434;DHT22;6281;49.038;8.372;2023-03-03T00:34:51;3.20;99.90
12434;DHT22;6281;49.038;8.372;2023-03-03T00:37:30;3.20;99.90
12434;DHT22;6281;49.038;8.372;2023-03-03T00:40:23;3.00;99.90
12434;DHT22;6281;49.038;8.372;2023-03-03T00:42:52;2.90;99.90
12434;DHT22;6281;49.038;8.372;2023-03-03T00:45:29;3.00;99.90
12434;DHT22;6281;49.038;8.372;2023-03-03T00:48:15;3.00;99.90
12434;DHT22;6281;49.038;8.372;2023-03-03T00:50:44;3.20;99.90
12434;DHT22;6281;49.038;8.372;2023-03-03T00:53:14;3.00;99.90
12434;DHT22;6281;49.038;8.372;2023-03-03T00:55:42;3.20;99.90
12434;DHT22;6281;49.038;8.372;2023-03-03T00:58:10;2.70;99.90
12434;DHT22;6281;49.038;8.372;2023-03-03T01:00:40;2.90;99.90
12434;DHT22;6281;49.038;8.372;2023-03-03T01:03:12;2.90;99.90
12434;DHT22;6281;49.038;8.372;2023-03-03T01:05:44;2.40;99.90
12434;DHT22;6281;49.038;8.372;2023-03-03T01:08:11;3.00;99.90
12434;DHT22;6281;49.038;8.372;2023-03-03T01:10:45;2.90;99.90
12434;DHT22;6281;49.038;8.372;2023-03-03T01:13:13;3.00;99.90
12434;DHT22;6281;49.038;8.372;2023-03-03T01:15:40;2.90;99.90
12434;DHT22;6281;49.038;8.372;2023-03-03T01:18:10;2.50;99.90
12434;DHT22;6281;49.038;8.372;2023-03-03T01:20:38;2.90;99.90
12434;DHT22;6281;49.038;8.372;2023-03-03T01:23:05;2.70;99.90
12434;DHT22;6281;49.038;8.372;2023-03-03T01:25:32;2.60;99.90
12434;DHT22;6281;49.038;8.372;2023-03-03T01:27:59;3.00;99.90
12434;DHT22;6281;49.038;8.372;2023-03-03T01:30:26;2.90;99.90
12434;DHT22;6281;49.038;8.372;2023-03-03T01:32:54;3.00;99.90
12434;DHT22;6281;49.038;8.372;2023-03-03T01:35:22;3.00;99.90
12434;DHT22;6281;49.038;8.372;2023-03-03T01:37:49;3.00;99.90
12434;DHT22;6281;49.038;8.372;2023-03-03T01:40:18;3.10;99.90
12434;DHT22;6281;49.038;8.372;2023-03-03T01:42:45;3.00;99.90
12434;DHT22;6281;49.038;8.372;2023-03-03T01:45:16;2.90;99.90
12434;DHT22;6281;49.038;8.372;2023-03-03T01:47:47;2.50;99.90
12434;DHT22;6281;49.038;8.372;2023-03-03T01:50:24;2.80;99.90
12434;DHT22;6281;49.038;8.372;2023-03-03T01:52:53;2.90;99.90
12434;DHT22;6281;49.038;8.372;2023-03-03T01:55:23;2.90;99.90
12434;DHT22;6281;49.038;8.372;2023-03-03T01:57:55;3.00;99.90
12434;DHT22;6281;49.038;8.372;2023-03-03T02:00:24;3.10;99.90
12434;DHT22;6281;49.038;8.372;2023-03-03T02:02:51;2.90;99.90
12434;DHT22;6281;49.038;8.372;2023-03-03T02:05:19;2.60;99.90
12434;DHT22;6281;49.038;8.372;2023-03-03T02:07:48;2.90;99.90
12434;DHT22;6281;49.038;8.372;2023-03-03T02:10:17;2.70;99.90
12434;DHT22;6281;49.038;8.372;2023-03-03T02:12:48;2.70;99.90
12434;DHT22;6281;49.038;8.372;2023-03-03T02:15:18;2.80;99.90
12434;DHT22;6281;49.038;8.372;2023-03-03T02:17:46;2.80;99.90
12434;DHT22;6281;49.038;8.372;2023-03-03T02:20:19;2.30;99.90
12434;DHT22;6281;49.038;8.372;2023-03-03T02:22:54;2.50;99.90
12434;DHT22;6281;49.038;8.372;2023-03-03T02:25:29;2.50;99.90
12434;DHT22;6281;49.038;8.372;2023-03-03T02:27:59;2.50;99.90
12434;DHT22;6281;49.038;8.372;2023-03-03T02:30:27;2.50;99.90
12434;DHT22;6281;49.038;8.372;2023-03-03T02:32:54;2.20;99.90
12434;DHT22;6281;49.038;8.372;2023-03-03T02:35:30;2.20;99.90
12434;DHT22;6281;49.038;8.372;2023-03-03T02:38:03;2.40;99.90
12434;DHT22;6281;49.038;8.372;2023-03-03T02:40:36;2.30;99.90
12434;DHT22;6281;49.038;8.372;2023-03-03T02:43:06;2.40;99.90
12434;DHT22;6281;49.038;8.372;2023-03-03T02:45:41;2.60;99.90
12434;DHT22;6281;49.038;8.372;2023-03-03T02:48:08;2.40;99.90
12434;DHT22;6281;49.038;8.372;2023-03-03T02:50:35;2.50;99.90
12434;DHT22;6281;49.038;8.372;2023-03-03T02:53:02;2.60;99.90
12434;DHT22;6281;49.038;8.372;2023-03-03T02:55:29;2.50;99.90
12434;DHT22;6281;49.038;8.372;2023-03-03T02:57:56;2.60;99.90
12434;DHT22;6281;49.038;8.372;2023-03-03T03:00:25;2.60;99.90
12434;DHT22;6281;49.038;8.372;2023-03-03T03:02:52;2.30;99.90
12434;DHT22;6281;49.038;8.372;2023-03-03T03:05:19;2.40;99.90
12434;DHT22;6281;49.038;8.372;2023-03-03T03:07:45;2.50;99.90
12434;DHT22;6281;49.038;8.372;2023-03-03T03:10:13;2.50;99.90
12434;DHT22;6281;49.038;8.372;2023-03-03T03:12:40;2.60;99.90
12434;DHT22;6281;49.038;8.372;2023-03-03T03:15:07;2.50;99.90
12434;DHT22;6281;49.038;8.372;2023-03-03T03:17:37;2.40;99.90
12434;DHT22;6281;49.038;8.372;2023-03-03T03:20:05;2.40;99.90
12434;DHT22;6281;49.038;8.372;2023-03-03T03:22:32;2.30;99.90
12434;DHT22;6281;49.038;8.372;2023-03-03T03:24:59;2.40;99.90
12434;DHT22;6281;49.038;8.372;2023-03-03T03:27:26;2.40;99.90
12434;DHT22;6281;49.038;8.372;2023-03-03T03:29:53;2.50;99.90
12434;DHT22;6281;49.038;8.372;2023-03-03T03:32:19;2.40;99.90
12434;DHT22;6281;49.038;8.372;2023-03-03T03:34:48;2.20;99.90
12434;DHT22;6281;49.038;8.372;2023-03-03T03:37:15;2.30;99.90
12434;DHT22;6281;49.038;8.372;2023-03-03T03:39:42;2.30;99.90
12434;DHT22;6281;49.038;8.372;2023-03-03T03:42:08;2.30;99.90
12434;DHT22;6281;49.038;8.372;2023-03-03T03:44:35;2.30;99.90
12434;DHT22;6281;49.038;8.372;2023-03-03T03:47:02;2.30;99.90
12434;DHT22;6281;49.038;8.372;2023-03-03T03:49:29;2.40;99.90
12434;DHT22;6281;49.038;8.372;2023-03-03T03:51:57;2.30;99.90
12434;DHT22;6281;49.038;8.372;2023-03-03T03:54:24;2.20;99.90
12434;DHT22;6281;49.038;8.372;2023-03-03T03:56:51;2.10;99.90
12434;DHT22;6281;49.038;8.372;2023-03-03T03:59:19;2.10;99.90
12434;DHT22;6281;49.038;8.372;2023-03-03T04:01:45;1.90;99.90
12434;DHT22;6281;49.038;8.372;2023-03-03T04:04:12;1.90;99.90
12434;DHT22;6281;49.038;8.372;2023-03-03T04:06:39;1.90;99.90
12434;DHT22;6281;49.038;8.372;2023-03-03T04:09:07;1.90;99.90
12434;DHT22;6281;49.038;8.372;2023-03-03T04:11:34;1.80;99.90
12434;DHT22;6281;49.038;8.372;2023-03-03T04:14:01;1.70;99.90
12434;DHT22;6281;49.038;8.372;2023-03-03T04:16:27;1.60;99.90
12434;DHT22;6281;49.038;8.372;2023-03-03T04:18:54;1.70;99.90
12434;DHT22;6281;49.038;8.372;2023-03-03T04:21:21;1.50;99.90
12434;DHT22;6281;49.038;8.372;2023-03-03T04:23:48;1.50;99.90
12434;DHT22;6281;49.038;8.372;2023-03-03T04:26:16;1.50;99.90
12434;DHT22;6281;49.038;8.372;2023-03-03T04:28:43;1.50;99.90
12434;DHT22;6281;49.038;8.372;2023-03-03T04:31:10;1.50;99.90
12434;DHT22;6281;49.038;8.372;2023-03-03T04:33:37;1.60;99.90
12434;DHT22;6281;49.038;8.372;2023-03-03T04:36:05;1.70;99.90
12434;DHT22;6281;49.038;8.372;2023-03-03T04:38:31;1.70;99.90
12434;DHT22;6281;49.038;8.372;2023-03-03T04:40:58;1.70;99.90
12434;DHT22;6281;49.038;8.372;2023-03-03T04:43:27;1.70;99.90
12434;DHT22;6281;49.038;8.372;2023-03-03T04:45:54;1.60;99.90
12434;DHT22;6281;49.038;8.372;2023-03-03T04:48:20;1.60;99.90
12434;DHT22;6281;49.038;8.372;2023-03-03T04:50:47;1.70;99.90
12434;DHT22;6281;49.038;8.372;2023-03-03T04:53:14;1.60;99.90
12434;DHT22;6281;49.038;8.372;2023-03-03T04:55:41;1.60;99.90
12434;DHT22;6281;49.038;8.372;2023-03-03T04:58:08;1.50;99.90
12434;DHT22;6281;49.038;8.372;2023-03-03T05:00:37;1.20;99.90
12434;DHT22;6281;49.038;8.372;2023-03-03T05:03:04;1.30;99.90
12434;DHT22;6281;49.038;8.372;2023-03-03T05:05:31;1.40;99.90
12434;DHT22;6281;49.038;8.372;2023-03-03T05:07:58;1.40;99.90
12434;DHT22;6281;49.038;8.372;2023-03-03T05:10:24;1.30;99.90
12434;DHT22;6281;49.038;8.372;2023-03-03T05:12:51;1.20;99.90
12434;DHT22;6281;49.038;8.372;2023-03-03T05:15:18;1.10;99.90
12434;DHT22;6281;49.038;8.372;2023-03-03T05:17:46;0.90;99.90
12434;DHT22;6281;49.038;8.372;2023-03-03T05:20:13;1.10;99.90
12434;DHT22;6281;49.038;8.372;2023-03-03T05:22:40;1.10;99.90
12434;DHT22;6281;49.038;8.372;2023-03-03T05:25:07;1.10;99.90
12434;DHT22;6281;49.038;8.372;2023-03-03T05:27:37;1.00;99.90
12434;DHT22;6281;49.038;8.372;2023-03-03T05:30:04;0.90;99.90
12434;DHT22;6281;49.038;8.372;2023-03-03T05:32:31;0.90;99.90
12434;DHT22;6281;49.038;8.372;2023-03-03T05:35:00;0.80;99.90
12434;DHT22;6281;49.038;8.372;2023-03-03T05:37:27;0.80;99.90
12434;DHT22;6281;49.038;8.372;2023-03-03T05:39:54;0.80;99.90
12434;DHT22;6281;49.038;8.372;2023-03-03T05:42:20;0.90;99.90
12434;DHT22;6281;49.038;8.372;2023-03-03T05:44:47;1.00;99.90
12434;DHT22;6281;49.038;8.372;2023-03-03T05:47:14;1.00;99.90
12434;DHT22;6281;49.038;8.372;2023-03-03T05:49:41;1.10;99.90
12434;DHT22;6281;49.038;8.372;2023-03-03T05:52:09;1.00;99.90
12434;DHT22;6281;49.038;8.372;2023-03-03T05:54:36;0.90;99.90
12434;DHT22;6281;49.038;8.372;2023-03-03T05:57:03;1.10;99.90
12434;DHT22;6281;49.038;8.372;2023-03-03T05:59:30;1.10;99.90
12434;DHT22;6281;49.038;8.372;2023-03-03T06:01:57;1.10;99.90
12434;DHT22;6281;49.038;8.372;2023-03-03T06:04:24;1.20;99.90
12434;DHT22;6281;49.038;8.372;2023-03-03T06:06:51;1.30;99.90
12434;DHT22;6281;49.038;8.372;2023-03-03T06:09:19;1.40;99.90
12434;DHT22;6281;49.038;8.372;2023-03-03T06:11:46;1.40;99.90
12434;DHT22;6281;49.038;8.372;2023-03-03T06:14:13;1.50;99.90
12434;DHT22;6281;49.038;8.372;2023-03-03T06:16:40;1.50;99.90
12434;DHT22;6281;49.038;8.372;2023-03-03T06:19:06;1.30;99.90
12434;DHT22;6281;49.038;8.372;2023-03-03T06:21:33;1.30;99.90
12434;DHT22;6281;49.038;8.372;2023-03-03T06:24:00;1.40;99.90
12434;DHT22;6281;49.038;8.372;2023-03-03T06:26:30;1.40;99.90
12434;DHT22;6281;49.038;8.372;2023-03-03T06:28:57;1.50;99.90
12434;DHT22;6281;49.038;8.372;2023-03-03T06:31:25;1.60;99.90
12434;DHT22;6281;49.038;8.372;2023-03-03T06:33:52;1.60;99.90
12434;DHT22;6281;49.038;8.372;2023-03-03T06:36:19;1.40;99.90
12434;DHT22;6281;49.038;8.372;2023-03-03T06:38:48;1.30;99.90
12434;DHT22;6281;49.038;8.372;2023-03-03T06:41:14;1.40;99.90
12434;DHT22;6281;49.038;8.372;2023-03-03T06:43:43;1.20;99.90
12434;DHT22;6281;49.038;8.372;2023-03-03T06:46:10;1.40;99.90
12434;DHT22;6281;49.038;8.372;2023-03-03T06:48:37;1.50;99.90
12434;DHT22;6281;49.038;8.372;2023-03-03T06:51:16;1.60;99.90
12434;DHT22;6281;49.038;8.372;2023-03-03T06:53:46;1.50;99.90
12434;DHT22;6281;49.038;8.372;2023-03-03T06:56:13;1.60;99.90
12434;DHT22;6281;49.038;8.372;2023-03-03T06:58:40;1.60;99.90
12434;DHT22;6281;49.038;8.372;2023-03-03T07:01:14;1.70;99.90
12434;DHT22;6281;49.038;8.372;2023-03-03T07:03:41;1.80;99.90
12434;DHT22;6281;49.038;8.372;2023-03-03T07:06:20;2.30;99.90
12434;DHT22;6281;49.038;8.372;2023-03-03T07:08:48;2.50;99.90
12434;DHT22;6281;49.038;8.372;2023-03-03T07:11:18;2.40;99.90
12434;DHT22;6281;49.038;8.372;2023-03-03T07:13:47;2.50;99.90
12434;DHT22;6281;49.038;8.372;2023-03-03T07:16:18;2.60;99.90
12434;DHT22;6281;49.038;8.372;2023-03-03T07:18:52;2.60;99.90
12434;DHT22;6281;49.038;8.372;2023-03-03T07:21:20;2.80;99.90
12434;DHT22;6281;49.038;8.372;2023-03-03T07:23:49;2.70;99.90
12434;DHT22;6281;49.038;8.372;2023-03-03T07:26:19;2.60;99.90
12434;DHT22;6281;49.038;8.372;2023-03-03T07:28:52;2.70;99.90
12434;DHT22;6281;49.038;8.372;2023-03-03T07:31:30;2.90;99.90
12434;DHT22;6281;49.038;8.372;2023-03-03T07:34:00;3.00;99.90
12434;DHT22;6281;49.038;8.372;2023-03-03T07:36:29;3.00;99.90
12434;DHT22;6281;49.038;8.372;2023-03-03T07:38:59;3.10;99.90
12434;DHT22;6281;49.038;8.372;2023-03-03T07:41:27;3.00;99.90
12434;DHT22;6281;49.038;8.372;2023-03-03T07:43:57;3.10;99.90
12434;DHT22;6281;49.038;8.372;2023-03-03T07:46:28;3.20;99.90
12434;DHT22;6281;49.038;8.372;2023-03-03T07:48:57;3.10;99.90
12434;DHT22;6281;49.038;8.372;2023-03-03T07:51:26;3.20;99.90
12434;DHT22;6281;49.038;8.372;2023-03-03T07:53:57;3.20;99.90
12434;DHT22;6281;49.038;8.372;2023-03-03T07:56:29;3.20;99.90
12434;DHT22;6281;49.038;8.372;2023-03-03T07:58:57;3.40;99.90
12434;DHT22;6281;49.038;8.372;2023-03-03T08:01:39;3.30;99.90
12434;DHT22;6281;49.038;8.372;2023-03-03T08:04:16;3.30;99.90
12434;DHT22;6281;49.038;8.372;2023-03-03T08:06:51;3.40;99.90
12434;DHT22;6281;49.038;8.372;2023-03-03T08:09:42;3.40;99.90
12434;DHT22;6281;49.038;8.372;2023-03-03T08:12:27;3.60;99.90
12434;DHT22;6281;49.038;8.372;2023-03-03T08:14:56;3.60;99.90
12434;DHT22;6281;49.038;8.372;2023-03-03T08:17:30;3.70;99.90
12434;DHT22;6281;49.038;8.372;2023-03-03T08:20:01;3.70;99.90
12434;DHT22;6281;49.038;8.372;2023-03-03T08:22:35;3.80;99.90
12434;DHT22;6281;49.038;8.372;2023-03-03T08:25:02;3.70;99.90
12434;DHT22;6281;49.038;8.372;2023-03-03T08:27:29;3.90;99.90
12434;DHT22;6281;49.038;8.372;2023-03-03T08:29:56;4.00;99.90
12434;DHT22;6281;49.038;8.372;2023-03-03T08:32:25;4.20;99.90
12434;DHT22;6281;49.038;8.372;2023-03-03T08:34:51;4.00;99.90
12434;DHT22;6281;49.038;8.372;2023-03-03T08:37:18;3.90;99.90
12434;DHT22;6281;49.038;8.372;2023-03-03T08:39:45;4.10;99.90
12434;DHT22;6281;49.038;8.372;2023-03-03T08:42:12;4.10;99.90
12434;DHT22;6281;49.038;8.372;2023-03-03T08:44:39;4.30;99.90
12434;DHT22;6281;49.038;8.372;2023-03-03T08:47:06;4.40;99.90
12434;DHT22;6281;49.038;8.372;2023-03-03T08:49:34;4.10;99.90
12434;DHT22;6281;49.038;8.372;2023-03-03T08:52:01;4.50;99.90
12434;DHT22;6281;49.038;8.372;2023-03-03T08:54:28;4.80;99.90
12434;DHT22;6281;49.038;8.372;2023-03-03T08:56:55;4.70;99.90
12434;DHT22;6281;49.038;8.372;2023-03-03T08:59:22;4.90;99.90
12434;DHT22;6281;49.038;8.372;2023-03-03T09:01:49;5.00;99.90
12434;DHT22;6281;49.038;8.372;2023-03-03T09:04:16;5.40;99.90
12434;DHT22;6281;49.038;8.372;2023-03-03T09:06:44;5.60;99.90
12434;DHT22;6281;49.038;8.372;2023-03-03T09:09:11;5.90;99.90
12434;DHT22;6281;49.038;8.372;2023-03-03T09:11:38;5.80;99.90
12434;DHT22;6281;49.038;8.372;2023-03-03T09:14:10;7.50;99.90
12434;DHT22;6281;49.038;8.372;2023-03-03T09:16:39;6.60;99.90
12434;DHT22;6281;49.038;8.372;2023-03-03T09:19:20;6.30;99.90
12434;DHT22;6281;49.038;8.372;2023-03-03T09:21:50;6.80;99.90
12434;DHT22;6281;49.038;8.372;2023-03-03T09:24:24;8.80;99.90
12434;DHT22;6281;49.038;8.372;2023-03-03T09:26:52;9.40;99.90
12434;DHT22;6281;49.038;8.372;2023-03-03T09:29:24;10.00;99.90
12434;DHT22;6281;49.038;8.372;2023-03-03T09:31:53;9.80;99.90
12434;DHT22;6281;49.038;8.372;2023-03-03T09:34:23;10.00;99.90
12434;DHT22;6281;49.038;8.372;2023-03-03T09:36:54;9.70;99.90
12434;DHT22;6281;49.038;8.372;2023-03-03T09:39:23;8.20;99.90
12434;DHT22;6281;49.038;8.372;2023-03-03T09:42:36;7.10;99.90
12434;DHT22;6281;49.038;8.372;2023-03-03T09:45:36;9.00;99.90
12434;DHT22;6281;49.038;8.372;2023-03-03T09:48:39;9.50;99.90
12434;DHT22;6281;49.038;8.372;2023-03-03T09:51:18;7.80;99.90
12434;DHT22;6281;49.038;8.372;2023-03-03T09:54:03;7.70;99.90
12434;DHT22;6281;49.038;8.372;2023-03-03T09:56:36;7.40;99.90
12434;DHT22;6281;49.038;8.372;2023-03-03T09:59:21;7.30;99.90
12434;DHT22;6281;49.038;8.372;2023-03-03T10:02:01;6.70;99.90
12434;DHT22;6281;49.038;8.372;2023-03-03T10:04:41;6.90;99.90
12434;DHT22;6281;49.038;8.372;2023-03-03T10:07:22;7.00;99.90
12434;DHT22;6281;49.038;8.372;2023-03-03T10:10:13;7.40;99.90
12434;DHT22;6281;49.038;8.372;2023-03-03T10:12:50;7.10;99.90
12434;DHT22;6281;49.038;8.372;2023-03-03T10:15:29;7.00;99.90
12434;DHT22;6281;49.038;8.372;2023-03-03T10:18:01;7.30;99.90
12434;DHT22;6281;49.038;8.372;2023-03-03T10:20:49;7.00;99.90
12434;DHT22;6281;49.038;8.372;2023-03-03T10:23:20;6.90;99.90
12434;DHT22;6281;49.038;8.372;2023-03-03T10:25:58;7.30;99.90
12434;DHT22;6281;49.038;8.372;2023-03-03T10:28:51;7.50;99.90
12434;DHT22;6281;49.038;8.372;2023-03-03T10:31:33;7.30;99.90
12434;DHT22;6281;49.038;8.372;2023-03-03T10:34:14;7.80;99.90
12434;DHT22;6281;49.038;8.372;2023-03-03T10:36:52;7.90;99.90
12434;DHT22;6281;49.038;8.372;2023-03-03T10:39:37;7.70;99.90
12434;DHT22;6281;49.038;8.372;2023-03-03T10:42:16;7.70;99.90
12434;DHT22;6281;49.038;8.372;2023-03-03T10:45:12;7.60;99.90
12434;DHT22;6281;49.038;8.372;2023-03-03T10:47:53;7.60;99.90
12434;DHT22;6281;49.038;8.372;2023-03-03T10:50:29;7.40;99.90
12434;DHT22;6281;49.038;8.372;2023-03-03T10:53:08;7.30;99.90
12434;DHT22;6281;49.038;8.372;2023-03-03T10:56:14;8.40;99.90
12434;DHT22;6281;49.038;8.372;2023-03-03T10:58:52;10.00;99.90
12434;DHT22;6281;49.038;8.372;2023-03-03T11:01:28;12.00;91.00
12434;DHT22;6281;49.038;8.372;2023-03-03T11:04:22;14.10;74.10
12434;DHT22;6281;49.038;8.372;2023-03-03T11:06:54;14.10;59.00
12434;DHT22;6281;49.038;8.372;2023-03-03T11:09:33;14.80;57.70
12434;DHT22;6281;49.038;8.372;2023-03-03T11:12:09;15.60;58.30
12434;DHT22;6281;49.038;8.372;2023-03-03T11:14:48;14.50;56.90
12434;DHT22;6281;49.038;8.372;2023-03-03T11:17:20;16.00;53.50
12434;DHT22;6281;49.038;8.372;2023-03-03T11:20:00;16.60;49.30
12434;DHT22;6281;49.038;8.372;2023-03-03T11:22:34;15.40;47.70
12434;DHT22;6281;49.038;8.372;2023-03-03T11:25:15;16.20;45.90
12434;DHT22;6281;49.038;8.372;2023-03-03T11:27:58;17.70;45.20
12434;DHT22;6281;49.038;8.372;2023-03-03T11:30:35;16.80;43.50
12434;DHT22;6281;49.038;8.372;2023-03-03T11:33:09;12.80;55.80
12434;DHT22;6281;49.038;8.372;2023-03-03T11:35:43;16.20;49.90
12434;DHT22;6281;49.038;8.372;2023-03-03T11:38:25;14.30;46.70
12434;DHT22;6281;49.038;8.372;2023-03-03T11:41:00;15.40;48.60
12434;DHT22;6281;49.038;8.372;2023-03-03T11:43:33;17.10;43.30
12434;DHT22;6281;49.038;8.372;2023-03-03T11:46:08;18.10;44.30
12434;DHT22;6281;49.038;8.372;2023-03-03T11:48:43;17.80;43.20
12434;DHT22;6281;49.038;8.372;2023-03-03T11:51:14;17.30;42.90
12434;DHT22;6281;49.038;8.372;2023-03-03T11:53:53;17.60;41.50
12434;DHT22;6281;49.038;8.372;2023-03-03T11:56:25;16.50;44.10
12434;DHT22;6281;49.038;8.372;2023-03-03T11:58:59;16.80;43.20
12434;DHT22;6281;49.038;8.372;2023-03-03T12:01:34;18.50;40.20
12434;DHT22;6281;49.038;8.372;2023-03-03T12:04:03;19.80;39.60
12434;DHT22;6281;49.038;8.372;2023-03-03T12:06:37;20.00;37.50
12434;DHT22;6281;49.038;8.372;2023-03-03T12:09:26;19.70;37.70
12434;DHT22;6281;49.038;8.372;2023-03-03T12:12:02;17.60;40.10
12434;DHT22;6281;49.038;8.372;2023-03-03T12:14:46;17.30;41.30
12434;DHT22;6281;49.038;8.372;2023-03-03T12:17:36;14.10;49.00
12434;DHT22;6281;49.038;8.372;2023-03-03T12:20:11;11.60;59.00
12434;DHT22;6281;49.038;8.372;2023-03-03T12:22:41;15.00;51.60
12434;DHT22;6281;49.038;8.372;2023-03-03T12:25:29;15.50;52.40
12434;DHT22;6281;49.038;8.372;2023-03-03T12:28:04;15.90;49.70
12434;DHT22;6281;49.038;8.372;2023-03-03T12:30:47;14.90;50.00
12434;DHT22;6281;49.038;8.372;2023-03-03T12:33:28;15.10;51.60
12434;DHT22;6281;49.038;8.372;2023-03-03T12:36:04;14.30;58.40
12434;DHT22;6281;49.038;8.372;2023-03-03T12:38:42;15.30;55.50
12434;DHT22;6281;49.038;8.372;2023-03-03T12:41:17;15.50;55.30
12434;DHT22;6281;49.038;8.372;2023-03-03T12:43:55;15.10;49.80
12434;DHT22;6281;49.038;8.372;2023-03-03T12:46:38;14.00;53.50
12434;DHT22;6281;49.038;8.372;2023-03-03T12:49:10;13.60;57.60
12434;DHT22;6281;49.038;8.372;2023-03-03T12:51:47;14.30;54.00
12434;DHT22;6281;49.038;8.372;2023-03-03T12:54:40;14.70;55.60
12434;DHT22;6281;49.038;8.372;2023-03-03T12:57:15;15.40;53.10
12434;DHT22;6281;49.038;8.372;2023-03-03T12:59:52;15.30;54.90
12434;DHT22;6281;49.038;8.372;2023-03-03T13:02:44;15.40;54.80
12434;DHT22;6281;49.038;8.372;2023-03-03T13:05:20;15.00;56.10
12434;DHT22;6281;49.038;8.372;2023-03-03T13:07:58;15.50;53.30
12434;DHT22;6281;49.038;8.372;2023-03-03T13:10:33;15.60;51.00
12434;DHT22;6281;49.038;8.372;2023-03-03T13:13:06;13.90;54.10
12434;DHT22;6281;49.038;8.372;2023-03-03T13:15:37;14.50;55.60
12434;DHT22;6281;49.038;8.372;2023-03-03T13:18:19;13.50;55.50
12434;DHT22;6281;49.038;8.372;2023-03-03T13:20:58;12.70;60.00
12434;DHT22;6281;49.038;8.372;2023-03-03T13:23:35;14.20;56.20
12434;DHT22;6281;49.038;8.372;2023-03-03T13:26:09;15.30;55.80
12434;DHT22;6281;49.038;8.372;2023-03-03T13:28:40;14.70;54.30
12434;DHT22;6281;49.038;8.372;2023-03-03T13:31:15;13.70;58.90
12434;DHT22;6281;49.038;8.372;2023-03-03T13:33:50;15.10;55.50
12434;DHT22;6281;49.038;8.372;2023-03-03T13:36:21;13.00;58.20
12434;DHT22;6281;49.038;8.372;2023-03-03T13:38:52;12.50;62.30
12434;DHT22;6281;49.038;8.372;2023-03-03T13:41:23;13.50;63.20
12434;DHT22;6281;49.038;8.372;2023-03-03T13:43:57;13.70;57.80
12434;DHT22;6281;49.038;8.372;2023-03-03T13:46:34;14.30;59.40
12434;DHT22;6281;49.038;8.372;2023-03-03T13:49:23;15.00;54.60
12434;DHT22;6281;49.038;8.372;2023-03-03T13:51:58;13.70;57.30
12434;DHT22;6281;49.038;8.372;2023-03-03T13:54:40;13.30;59.70
12434;DHT22;6281;49.038;8.372;2023-03-03T13:57:18;14.10;55.80
12434;DHT22;6281;49.038;8.372;2023-03-03T13:59:52;14.30;55.90
12434;DHT22;6281;49.038;8.372;2023-03-03T14:02:42;14.70;56.00
12434;DHT22;6281;49.038;8.372;2023-03-03T14:05:15;14.70;57.20
12434;DHT22;6281;49.038;8.372;2023-03-03T14:07:48;14.10;53.80
12434;DHT22;6281;49.038;8.372;2023-03-03T14:10:22;15.30;53.40
12434;DHT22;6281;49.038;8.372;2023-03-03T14:12:57;14.80;54.90
12434;DHT22;6281;49.038;8.372;2023-03-03T14:15:28;14.60;54.60
12434;DHT22;6281;49.038;8.372;2023-03-03T14:18:11;15.10;56.20
12434;DHT22;6281;49.038;8.372;2023-03-03T14:20:47;15.50;53.40
12434;DHT22;6281;49.038;8.372;2023-03-03T14:23:20;15.30;52.80
12434;DHT22;6281;49.038;8.372;2023-03-03T14:25:58;14.90;52.30
12434;DHT22;6281;49.038;8.372;2023-03-03T14:28:37;14.60;54.50
12434;DHT22;6281;49.038;8.372;2023-03-03T14:31:14;14.50;56.00
12434;DHT22;6281;49.038;8.372;2023-03-03T14:33:44;13.70;57.40
12434;DHT22;6281;49.038;8.372;2023-03-03T14:36:12;14.20;58.60
12434;DHT22;6281;49.038;8.372;2023-03-03T14:38:48;14.70;58.00
12434;DHT22;6281;49.038;8.372;2023-03-03T14:41:19;14.60;55.80
12434;DHT22;6281;49.038;8.372;2023-03-03T14:43:56;14.20;56.10
12434;DHT22;6281;49.038;8.372;2023-03-03T14:46:37;13.90;56.00
12434;DHT22;6281;49.038;8.372;2023-03-03T14:49:11;13.70;57.40
12434;DHT22;6281;49.038;8.372;2023-03-03T14:51:44;14.60;56.60
12434;DHT22;6281;49.038;8.372;2023-03-03T14:54:33;14.00;58.90
12434;DHT22;6281;49.038;8.372;2023-03-03T14:57:08;14.40;56.90
12434;DHT22;6281;49.038;8.372;2023-03-03T14:59:37;14.40;55.50
12434;DHT22;6281;49.038;8.372;2023-03-03T15:02:31;14.40;57.40
12434;DHT22;6281;49.038;8.372;2023-03-03T15:05:20;14.30;56.10
12434;DHT22;6281;49.038;8.372;2023-03-03T15:07:50;14.70;55.60
12434;DHT22;6281;49.038;8.372;2023-03-03T15:10:29;15.00;58.00
12434;DHT22;6281;49.038;8.372;2023-03-03T15:12:56;13.30;57.60
12434;DHT22;6281;49.038;8.372;2023-03-03T15:15:24;13.20;59.10
12434;DHT22;6281;49.038;8.372;2023-03-03T15:17:56;14.00;60.00
12434;DHT22;6281;49.038;8.372;2023-03-03T15:20:43;14.60;57.60
12434;DHT22;6281;49.038;8.372;2023-03-03T15:23:29;14.20;56.20
12434;DHT22;6281;49.038;8.372;2023-03-03T15:26:05;13.40;57.90
12434;DHT22;6281;49.038;8.372;2023-03-03T15:28:50;14.00;60.40
12434;DHT22;6281;49.038;8.372;2023-03-03T15:31:30;13.90;58.50
12434;DHT22;6281;49.038;8.372;2023-03-03T15:34:04;13.40;59.30
12434;DHT22;6281;49.038;8.372;2023-03-03T15:36:37;13.50;59.30
12434;DHT22;6281;49.038;8.372;2023-03-03T15:39:15;13.80;58.80
12434;DHT22;6281;49.038;8.372;2023-03-03T15:41:50;13.80;58.30
12434;DHT22;6281;49.038;8.372;2023-03-03T15:44:25;14.20;59.80
12434;DHT22;6281;49.038;8.372;2023-03-03T15:47:05;13.90;59.60
12434;DHT22;6281;49.038;8.372;2023-03-03T15:50:00;13.60;58.00
12434;DHT22;6281;49.038;8.372;2023-03-03T15:52:44;13.60;58.00
12434;DHT22;6281;49.038;8.372;2023-03-03T15:55:25;13.40;60.20
12434;DHT22;6281;49.038;8.372;2023-03-03T15:58:09;13.10;60.00
12434;DHT22;6281;49.038;8.372;2023-03-03T16:00:48;13.40;62.00
12434;DHT22;6281;49.038;8.372;2023-03-03T16:03:23;13.00;60.70
12434;DHT22;6281;49.038;8.372;2023-03-03T16:05:54;12.70;62.40
12434;DHT22;6281;49.038;8.372;2023-03-03T16:08:25;12.90;64.60
12434;DHT22;6281;49.038;8.372;2023-03-03T16:11:01;12.30;65.80
12434;DHT22;6281;49.038;8.372;2023-03-03T16:13:44;12.00;70.20
12434;DHT22;6281;49.038;8.372;2023-03-03T16:16:23;12.00;74.60
12434;DHT22;6281;49.038;8.372;2023-03-03T16:18:59;12.80;71.90
12434;DHT22;6281;49.038;8.372;2023-03-03T16:21:45;12.90;70.90
12434;DHT22;6281;49.038;8.372;2023-03-03T16:24:22;13.50;65.60
12434;DHT22;6281;49.038;8.372;2023-03-03T16:26:55;12.40;75.70
12434;DHT22;6281;49.038;8.372;2023-03-03T16:29:36;12.40;71.60
12434;DHT22;6281;49.038;8.372;2023-03-03T16:32:10;12.70;72.50
12434;DHT22;6281;49.038;8.372;2023-03-03T16:34:43;11.70;75.30